Date,TemperatureHighF,TemperatureAvgF,TemperatureLowF,DewpointHighF,DewpointAvgF,DewpointLowF,HumidityHigh,HumidityAvg,HumidityLow,PressureMaxIn,PressureMinIn,WindSpeedMaxMPH,WindSpeedAvgMPH,GustSpeedMaxMPH,PrecipitationSumIn
2013-2-1,17,14,10,15,12,7,93,91,87,30.29,29.97,20,10,20,0.00
2013-2-2,19,13,2,17,11,-1,94,91,86,30.22,30.03,16,4,16,0.00
2013-2-3,20,14,2,18,12,0,94,92,89,30.07,29.93,20,4,20,0.00
2013-2-4,23,17,6,20,15,3,100,92,86,30.07,29.92,10,2,10,0.00
2013-2-5,29,18,-1,28,16,-4,100,91,83,30.06,29.83,17,5,18,0.00
2013-2-6,37,25,5,25,19,3,96,79,57,30.29,30.06,12,3,12,0.05
2013-2-7,35,31,27,32,27,22,97,85,78,30.25,29.86,16,6,16,0.03
2013-2-8,32,27,10,31,24,7,97,87,73,30.40,29.86,15,5,15,0.04
2013-2-9,33,16,-4,24,12,-7,94,82,65,30.48,30.23,17,4,17,0.00
2013-2-10,42,33,23,41,29,19,96,84,74,30.24,29.57,29,9,29,0.16
2013-2-11,45,36,30,43,32,25,97,87,72,29.93,29.52,36,17,36,0.00
2013-2-12,31,29,28,26,25,23,88,85,80,30.08,29.92,25,9,25,0.00
2013-2-13,42,31,21,31,26,19,95,83,64,29.95,29.74,17,3,17,0.00
2013-2-14,40,34,28,34,31,26,96,90,78,29.93,29.65,29,9,29,0.03
2013-2-15,29,24,21,27,20,17,92,84,70,30.18,29.92,18,5,18,0.00
2013-2-16,21,16,2,20,14,-2,94,91,84,30.15,30.06,19,4,19,0.00
2013-2-17,27,10,-8,19,5,-11,93,81,61,30.28,30.15,9,1,9,0.02
2013-2-18,46,35,18,42,27,12,94,75,63,30.18,29.45,25,10,25,0.15
2013-2-19,44,25,16,42,23,14,94,92,89,30.03,29.38,34,16,34,0.11
2013-2-20,22,19,16,17,15,14,92,84,74,30.34,30.03,22,10,22,0.00
2013-2-21,27,23,21,21,18,16,84,80,75,30.42,30.19,20,7,20,0.00
2013-2-22,33,27,22,32,25,17,97,92,77,30.19,29.86,19,9,23,0.00
2013-2-23,30,28,25,28,25,22,94,90,84,29.95,29.87,22,8,22,0.00
2013-2-24,36,29,18,30,25,17,100,87,71,30.18,29.92,15,5,15,0.06
2013-2-25,45,27,11,30,21,9,95,79,45,30.25,30.10,12,2,12,0.00
2013-2-26,34,31,28,32,27,23,98,85,72,30.12,29.51,30,7,30,0.17
2013-2-27,38,34,33,37,34,32,100,99,98,29.62,29.48,10,1,10,0.18
2013-2-28,36,34,31,33,31,27,99,91,81,30.01,29.62,15,8,16,0.00